KDEW

Deer Park Airport

Deer Park, Washington, USA
METAR KDEW 211953Z AUTO 00000KT 10SM CLR 02/00 A3001 RMK AO2 SLP184 T00220000
Observed Flight Rules
Jan-21 @ 19:53 UTC (33 minutes ago) Visual Flight Rules
Wind Visibility Clouds
Calm 10 miles
  • Clear skies
Temperatures Readings
Current 2°C / 36°F
Dewpoint 0°C / 32°F
Humidity 87%
Altimeter 30.01" Hg
Pressure 1018.4 hPa
Elevation 674
METAR KDEW 211953Z AUTO 00000KT 10SM CLR 02/00 A3001 RMK AO2 SLP184 T00220000
Observed Flight Rules
Jan-21 @ 19:53 UTC
(33 minutes ago)
VFR
Wind Visibility
Calm 10 miles
Clouds
  • Clear skies
Temperature Dewpoint
2°C / 36°F 0°C / 32°F
Humidity Altimeter Pressure
87% 30.01" Hg 1018.4 hPa